Time;durP1;ratioP1;P1;durP2;ratioP2;P2;SDS_P1;SDS_P2;PMS_P1;PMS_P2;Temp;Humidity;BMP_temperature;BMP_pressure;BME280_temperature;BME280_humidity;BME280_pressure;Samples;Min_cycle;Max_cycle;Signal;HPM_P1;HPM_P2
2023/09/10 00:00:50;;;;;;;10.80;7.72;;;18.10;99.90;;;;;;5091131;28;20072;-89
2023/09/10 00:03:16;;;;;;;10.18;7.20;;;18.10;99.90;;;;;;5068841;28;20042;-88
2023/09/10 00:05:42;;;;;;;10.75;7.88;;;18.10;99.90;;;;;;5088847;28;20095;-88
2023/09/10 00:08:08;;;;;;;11.48;8.15;;;18.10;99.90;;;;;;5064679;28;20386;-88
2023/09/10 00:10:33;;;;;;;11.82;8.15;;;18.10;99.90;;;;;;5068905;28;20102;-88
2023/09/10 00:12:59;;;;;;;10.00;7.38;;;18.10;99.90;;;;;;5066631;28;20132;-88
2023/09/10 00:15:25;;;;;;;10.23;7.45;;;18.00;99.90;;;;;;5063200;28;20043;-88
2023/09/10 00:17:52;;;;;;;10.27;7.72;;;18.00;99.90;;;;;;5064305;28;20035;-88
2023/09/10 00:20:18;;;;;;;10.52;7.95;;;18.00;99.90;;;;;;5068352;28;20465;-88
2023/09/10 00:22:44;;;;;;;10.70;7.72;;;18.00;99.90;;;;;;5088311;28;20409;-88
2023/09/10 00:25:10;;;;;;;9.52;7.05;;;18.00;99.90;;;;;;5073690;28;20055;-88
2023/09/10 00:27:36;;;;;;;9.63;7.10;;;18.00;99.90;;;;;;5069240;28;20048;-88
2023/09/10 00:30:03;;;;;;;9.82;7.28;;;18.00;99.90;;;;;;5043178;28;20048;-88
2023/09/10 00:32:29;;;;;;;10.60;7.88;;;18.00;99.90;;;;;;5063775;28;20056;-88
2023/09/10 00:34:55;;;;;;;9.55;6.82;;;18.00;99.90;;;;;;5067895;28;20048;-88
2023/09/10 00:37:21;;;;;;;9.40;7.07;;;18.00;99.90;;;;;;5073303;28;20056;-88
2023/09/10 00:39:47;;;;;;;9.75;7.22;;;18.00;99.90;;;;;;5069066;28;20055;-88
2023/09/10 00:42:12;;;;;;;9.55;7.38;;;17.90;99.90;;;;;;5070760;28;20404;-88
2023/09/10 00:44:40;;;;;;;9.25;6.50;;;17.90;99.90;;;;;;5065914;28;20044;-88
2023/09/10 00:47:08;;;;;;;9.32;6.45;;;17.80;99.90;;;;;;5068698;28;20051;-88
2023/09/10 00:49:34;;;;;;;8.80;6.00;;;17.80;99.90;;;;;;5085840;28;20032;-88
2023/09/10 00:52:02;;;;;;;9.60;6.57;;;17.80;99.90;;;;;;5065884;28;20048;-88
2023/09/10 00:54:32;;;;;;;8.55;5.97;;;17.80;99.90;;;;;;5070179;28;20299;-88
2023/09/10 00:57:00;;;;;;;8.80;5.97;;;17.80;99.90;;;;;;5068462;28;20130;-88
2023/09/10 00:59:30;;;;;;;8.90;6.28;;;17.70;99.90;;;;;;5070145;28;20294;-87
2023/09/10 01:01:57;;;;;;;8.80;5.93;;;17.70;99.90;;;;;;5068105;28;20055;-87
2023/09/10 01:04:23;;;;;;;9.23;6.20;;;17.60;99.90;;;;;;5067462;28;20040;-88
2023/09/10 01:06:53;;;;;;;9.48;6.30;;;17.60;99.90;;;;;;5068622;28;20044;-88
2023/09/10 01:09:19;;;;;;;9.70;6.53;;;17.60;99.90;;;;;;5071175;28;20496;-88
2023/09/10 01:12:11;;;;;;;9.80;6.50;;;17.50;99.90;;;;;;5054278;28;20076;-88
2023/09/10 01:14:56;;;;;;;9.18;6.28;;;17.50;99.90;;;;;;5072270;28;20378;-88
2023/09/10 01:17:37;;;;;;;9.80;6.60;;;17.50;99.90;;;;;;5063247;28;20045;-88
2023/09/10 01:20:28;;;;;;;9.98;6.85;;;17.50;99.90;;;;;;5062905;28;20040;-88
2023/09/10 01:23:07;;;;;;;11.00;7.65;;;17.50;99.90;;;;;;5069317;28;20447;-88
2023/09/10 01:25:34;;;;;;;10.23;7.00;;;17.50;99.90;;;;;;5067376;28;20044;-88
2023/09/10 01:28:03;;;;;;;10.77;7.15;;;17.40;99.90;;;;;;5064399;28;20052;-88
2023/09/10 01:30:32;;;;;;;10.98;7.70;;;17.40;99.90;;;;;;5062731;28;20496;-88
2023/09/10 01:33:13;;;;;;;11.63;8.65;;;17.40;99.90;;;;;;5081733;28;20194;-88
2023/09/10 01:35:51;;;;;;;14.35;9.30;;;17.40;99.90;;;;;;5059583;28;20055;-88
2023/09/10 01:38:26;;;;;;;11.68;8.68;;;17.40;99.90;;;;;;5071842;28;20044;-88
2023/09/10 01:41:04;;;;;;;11.70;8.68;;;17.40;99.90;;;;;;5071150;28;20082;-88
2023/09/10 01:43:31;;;;;;;11.80;8.85;;;17.40;99.90;;;;;;5061451;28;20037;-88
2023/09/10 01:45:57;;;;;;;11.48;8.48;;;17.30;99.90;;;;;;5065625;28;20044;-88
2023/09/10 01:48:26;;;;;;;12.25;9.27;;;17.30;99.90;;;;;;5067909;28;20052;-88
2023/09/10 01:50:53;;;;;;;12.93;10.15;;;17.30;99.90;;;;;;5069110;28;20055;-88
2023/09/10 01:53:19;;;;;;;13.50;10.18;;;17.30;99.90;;;;;;5063837;28;20451;-88
2023/09/10 01:55:45;;;;;;;13.23;10.43;;;17.30;99.90;;;;;;5079307;28;20111;-88
2023/09/10 01:58:14;;;;;;;13.60;10.68;;;17.30;99.90;;;;;;5070898;28;20066;-88
2023/09/10 02:00:41;;;;;;;13.70;10.77;;;17.30;99.90;;;;;;5072055;28;20051;-88
2023/09/10 02:03:07;;;;;;;13.48;11.13;;;17.30;99.90;;;;;;5078405;28;20043;-88
2023/09/10 02:05:32;;;;;;;13.10;10.73;;;17.30;99.90;;;;;;5069928;28;20048;-88
2023/09/10 02:07:58;;;;;;;13.95;11.60;;;17.30;99.90;;;;;;5071524;28;20185;-88
2023/09/10 02:10:24;;;;;;;14.13;11.57;;;17.30;99.90;;;;;;5070265;28;20039;-88
2023/09/10 02:12:50;;;;;;;13.48;11.23;;;17.30;99.90;;;;;;5066927;28;20409;-88
2023/09/10 02:15:17;;;;;;;15.15;12.52;;;17.30;99.90;;;;;;5059684;28;20266;-88
2023/09/10 02:17:43;;;;;;;14.38;11.82;;;17.30;99.90;;;;;;5066215;28;20052;-87
2023/09/10 02:20:09;;;;;;;13.98;11.60;;;17.30;99.90;;;;;;5067388;28;20044;-88
2023/09/10 02:22:39;;;;;;;14.18;11.93;;;17.30;99.90;;;;;;5063374;28;20448;-88
2023/09/10 02:25:06;;;;;;;14.20;11.00;;;17.30;99.90;;;;;;5063985;28;20119;-88
2023/09/10 02:27:32;;;;;;;14.02;11.00;;;17.20;99.90;;;;;;5060936;28;20093;-88
2023/09/10 02:29:58;;;;;;;13.65;11.50;;;17.20;99.90;;;;;;5070092;28;20044;-88
2023/09/10 02:32:25;;;;;;;12.98;10.65;;;17.20;99.90;;;;;;5080177;28;20523;-88
2023/09/10 02:34:53;;;;;;;13.38;10.98;;;17.20;99.90;;;;;;5070276;28;20645;-88
2023/09/10 02:37:19;;;;;;;14.15;11.55;;;17.20;99.90;;;;;;5084019;28;20037;-88
2023/09/10 02:39:45;;;;;;;13.80;10.38;;;17.20;99.90;;;;;;5085087;28;20040;-88
2023/09/10 02:42:11;;;;;;;13.52;10.38;;;17.20;99.90;;;;;;5069144;28;20048;-88
2023/09/10 02:44:36;;;;;;;12.68;10.13;;;17.20;99.90;;;;;;5068388;28;20462;-88
2023/09/10 02:47:02;;;;;;;12.65;9.40;;;17.10;99.90;;;;;;5059819;28;20051;-88
2023/09/10 02:49:28;;;;;;;12.55;9.88;;;17.10;99.90;;;;;;5070540;28;20218;-88
2023/09/10 02:51:54;;;;;;;12.80;9.52;;;17.00;99.90;;;;;;5071230;28;20040;-88
2023/09/10 02:54:20;;;;;;;12.13;9.43;;;17.10;99.90;;;;;;5068844;28;20513;-88
2023/09/10 02:56:46;;;;;;;10.88;8.02;;;17.00;99.90;;;;;;5067013;28;20048;-88
2023/09/10 02:59:23;;;;;;;10.98;8.18;;;17.00;99.90;;;;;;5066312;28;21459;-88
2023/09/10 03:01:49;;;;;;;11.02;8.13;;;16.90;99.90;;;;;;5077232;28;20032;-88
2023/09/10 03:04:15;;;;;;;11.85;8.90;;;16.90;99.90;;;;;;5083874;28;20412;-88
2023/09/10 03:06:45;;;;;;;11.93;8.45;;;17.00;99.90;;;;;;5051053;28;20079;-88
2023/09/10 03:09:12;;;;;;;11.07;8.38;;;16.90;99.90;;;;;;5056288;28;20053;-88
2023/09/10 03:11:38;;;;;;;10.70;7.93;;;16.90;99.90;;;;;;5056266;28;20048;-88
2023/09/10 03:14:08;;;;;;;11.82;9.30;;;17.00;99.90;;;;;;5064367;28;20055;-88
2023/09/10 03:16:34;;;;;;;13.13;8.95;;;16.90;99.90;;;;;;5068570;28;20044;-88
2023/09/10 03:19:00;;;;;;;11.38;8.80;;;16.90;99.90;;;;;;5068949;28;20116;-88
2023/09/10 03:21:26;;;;;;;12.73;10.07;;;16.90;99.90;;;;;;5080690;28;20040;-88
2023/09/10 03:23:53;;;;;;;13.02;10.35;;;16.90;99.90;;;;;;5075309;28;20032;-88
2023/09/10 03:26:18;;;;;;;11.60;9.05;;;16.90;99.90;;;;;;5069779;28;20032;-88
2023/09/10 03:28:44;;;;;;;11.18;8.73;;;16.90;99.90;;;;;;5068389;28;20504;-88
2023/09/10 03:31:10;;;;;;;10.77;8.52;;;16.90;99.90;;;;;;5061424;28;20330;-88
2023/09/10 03:33:36;;;;;;;10.88;8.05;;;16.80;99.90;;;;;;5069580;28;20519;-88
2023/09/10 03:36:02;;;;;;;10.60;8.32;;;16.80;99.90;;;;;;5060269;28;20036;-88
2023/09/10 03:38:28;;;;;;;10.93;8.45;;;16.90;99.90;;;;;;5059883;28;20029;-88
2023/09/10 03:40:54;;;;;;;11.40;8.38;;;16.80;99.90;;;;;;5065339;28;20489;-88
2023/09/10 03:43:20;;;;;;;10.65;8.10;;;16.80;99.90;;;;;;5060969;28;20093;-88
2023/09/10 03:45:45;;;;;;;11.90;7.97;;;16.70;99.90;;;;;;5065394;28;20074;-88
2023/09/10 03:48:12;;;;;;;11.23;7.60;;;16.70;99.90;;;;;;5065978;28;20444;-88
2023/09/10 03:50:38;;;;;;;10.70;6.97;;;16.70;99.90;;;;;;5062714;28;20502;-88
2023/09/10 03:53:04;;;;;;;9.15;6.10;;;16.60;99.90;;;;;;5060005;28;20048;-88
2023/09/10 03:55:30;;;;;;;9.32;6.28;;;16.60;99.90;;;;;;5051197;28;20150;-88
2023/09/10 03:57:56;;;;;;;8.50;5.63;;;16.50;99.90;;;;;;5068758;28;20060;-87
2023/09/10 04:00:22;;;;;;;8.68;5.55;;;16.50;99.90;;;;;;5066202;28;20051;-88
2023/09/10 04:02:48;;;;;;;9.02;5.65;;;16.50;99.90;;;;;;5065444;28;20473;-88
2023/09/10 04:05:14;;;;;;;9.20;6.03;;;16.50;99.90;;;;;;5065821;28;20052;-88
2023/09/10 04:07:40;;;;;;;9.07;5.90;;;16.50;99.90;;;;;;5053659;28;20528;-87
2023/09/10 04:10:07;;;;;;;9.98;6.15;;;16.40;99.90;;;;;;5048087;28;20063;-88
2023/09/10 04:12:34;;;;;;;9.75;7.05;;;16.40;99.90;;;;;;5054059;28;20079;-88
2023/09/10 04:15:00;;;;;;;9.45;6.32;;;16.40;99.90;;;;;;5058828;28;20127;-87
2023/09/10 04:17:28;;;;;;;9.70;6.43;;;16.40;99.90;;;;;;5071133;28;20116;-88
2023/09/10 04:20:00;;;;;;;9.27;6.40;;;16.30;99.90;;;;;;5067017;28;20040;-87
2023/09/10 04:22:26;;;;;;;9.68;6.60;;;16.30;99.90;;;;;;5064194;28;20174;-87
2023/09/10 04:24:52;;;;;;;9.70;7.00;;;16.30;99.90;;;;;;5070012;28;20129;-88
2023/09/10 04:27:18;;;;;;;10.10;7.50;;;16.30;99.90;;;;;;5056805;28;20129;-88
2023/09/10 04:29:43;;;;;;;9.88;7.28;;;16.30;99.90;;;;;;5091686;28;20048;-88
2023/09/10 04:32:09;;;;;;;10.48;7.20;;;16.30;99.90;;;;;;5066353;28;20421;-88
2023/09/10 04:34:35;;;;;;;10.43;7.40;;;16.30;99.90;;;;;;5088213;28;20629;-88
2023/09/10 04:37:03;;;;;;;9.57;7.03;;;16.30;99.90;;;;;;5052544;28;20048;-88
2023/09/10 04:39:28;;;;;;;10.68;7.43;;;16.30;99.90;;;;;;5063272;28;20123;-88
2023/09/10 04:41:54;;;;;;;10.50;7.70;;;16.30;99.90;;;;;;5084538;28;20457;-88
2023/09/10 04:44:20;;;;;;;11.10;8.55;;;16.30;99.90;;;;;;5073611;28;20044;-88
2023/09/10 04:46:46;;;;;;;11.18;8.43;;;16.30;99.90;;;;;;5062169;28;20056;-88
2023/09/10 04:49:12;;;;;;;11.80;9.27;;;16.30;99.90;;;;;;5068508;28;20060;-88
2023/09/10 04:51:37;;;;;;;11.55;9.05;;;16.40;99.90;;;;;;5067934;28;20332;-88
2023/09/10 04:54:03;;;;;;;11.75;9.30;;;16.30;99.90;;;;;;5052946;28;20089;-88
2023/09/10 04:56:29;;;;;;;11.93;9.50;;;16.40;99.90;;;;;;5067363;28;20094;-88
2023/09/10 04:58:55;;;;;;;12.30;9.05;;;16.40;99.90;;;;;;5086794;28;20088;-88
2023/09/10 05:01:21;;;;;;;11.63;8.85;;;16.40;99.90;;;;;;5062835;28;20056;-88
2023/09/10 05:03:46;;;;;;;11.25;8.88;;;16.40;99.90;;;;;;5072510;28;20371;-88
2023/09/10 05:06:13;;;;;;;12.25;9.50;;;16.40;99.90;;;;;;5072166;28;20463;-88
2023/09/10 05:08:39;;;;;;;13.00;9.57;;;16.40;99.90;;;;;;5062722;28;20050;-88
2023/09/10 05:11:05;;;;;;;11.93;8.82;;;16.40;99.90;;;;;;5047413;28;20397;-88
2023/09/10 05:13:31;;;;;;;10.63;8.02;;;16.30;99.90;;;;;;5061833;28;20127;-88
2023/09/10 05:15:57;;;;;;;11.50;8.57;;;16.30;99.90;;;;;;5068758;28;20181;-88
2023/09/10 05:18:24;;;;;;;11.15;8.35;;;16.30;99.90;;;;;;5064378;28;20040;-88
2023/09/10 05:20:54;;;;;;;10.60;7.75;;;16.30;99.90;;;;;;5065555;28;20079;-88
2023/09/10 05:23:26;;;;;;;10.20;7.32;;;16.30;99.90;;;;;;5066974;28;20048;-88
2023/09/10 05:25:52;;;;;;;9.95;7.00;;;16.30;99.90;;;;;;5067841;28;20117;-88
2023/09/10 05:28:18;;;;;;;9.50;6.03;;;16.30;99.90;;;;;;5078967;28;20127;-88
2023/09/10 05:30:43;;;;;;;8.77;5.57;;;16.30;99.90;;;;;;5041357;28;20059;-88
2023/09/10 05:33:09;;;;;;;8.15;4.85;;;16.20;99.90;;;;;;5083545;28;20064;-88
2023/09/10 05:35:35;;;;;;;7.93;4.50;;;16.20;99.90;;;;;;5090875;28;20445;-89
2023/09/10 05:38:00;;;;;;;7.50;4.32;;;16.30;99.90;;;;;;5058415;28;20053;-88
2023/09/10 05:40:26;;;;;;;7.50;3.95;;;16.30;99.90;;;;;;5079185;28;20036;-88
2023/09/10 05:42:52;;;;;;;6.78;3.33;;;16.30;99.90;;;;;;5062557;28;20041;-88
2023/09/10 05:45:19;;;;;;;7.00;3.63;;;16.20;99.90;;;;;;5067782;28;20040;-88
2023/09/10 05:47:45;;;;;;;7.32;3.80;;;16.30;99.90;;;;;;5060697;28;20258;-88
2023/09/10 05:50:10;;;;;;;7.15;3.95;;;16.30;99.90;;;;;;5059532;28;20286;-88
2023/09/10 05:52:36;;;;;;;7.50;4.13;;;16.40;99.90;;;;;;5067423;28;20043;-88
2023/09/10 05:55:02;;;;;;;7.95;4.30;;;16.40;99.90;;;;;;5089093;28;20161;-88
2023/09/10 05:57:28;;;;;;;7.45;3.92;;;16.50;99.90;;;;;;5071560;28;20044;-88
2023/09/10 05:59:54;;;;;;;8.10;4.13;;;16.50;99.90;;;;;;5065632;28;20065;-88
2023/09/10 06:02:19;;;;;;;7.15;3.97;;;16.60;99.90;;;;;;5062033;28;20044;-88
2023/09/10 06:04:45;;;;;;;8.80;5.50;;;16.70;99.90;;;;;;5064918;28;20476;-88
2023/09/10 06:07:11;;;;;;;9.27;5.28;;;16.70;99.90;;;;;;5069020;28;20040;-87
2023/09/10 06:09:37;;;;;;;8.55;5.20;;;16.70;99.90;;;;;;5068803;28;20214;-88
2023/09/10 06:12:03;;;;;;;8.95;4.40;;;16.80;99.90;;;;;;5059756;28;20047;-87
2023/09/10 06:14:30;;;;;;;8.25;4.45;;;16.80;99.90;;;;;;5069879;28;20120;-88
2023/09/10 06:16:57;;;;;;;8.05;4.28;;;16.80;99.90;;;;;;5079388;28;20110;-87
2023/09/10 06:19:22;;;;;;;8.18;5.13;;;16.80;99.90;;;;;;5063753;28;20052;-87
2023/09/10 06:21:48;;;;;;;8.30;5.32;;;16.90;99.90;;;;;;5058824;28;20060;-87
2023/09/10 06:24:14;;;;;;;9.27;5.88;;;16.90;99.90;;;;;;5059378;28;20130;-88
2023/09/10 06:26:40;;;;;;;8.95;5.70;;;17.00;99.90;;;;;;5038360;28;20516;-87
2023/09/10 06:29:06;;;;;;;8.77;6.07;;;17.10;99.90;;;;;;5070196;28;20048;-88
2023/09/10 06:31:32;;;;;;;10.05;7.57;;;17.10;99.90;;;;;;5060971;28;21453;-88
2023/09/10 06:33:58;;;;;;;10.10;7.75;;;17.20;99.90;;;;;;5058039;28;20075;-88
2023/09/10 06:36:24;;;;;;;9.73;7.05;;;17.30;99.90;;;;;;5045400;28;20083;-88
2023/09/10 06:38:49;;;;;;;9.80;7.13;;;17.40;99.90;;;;;;5069408;28;20396;-88
2023/09/10 06:41:15;;;;;;;9.30;6.18;;;17.40;99.90;;;;;;5046537;28;20064;-88
2023/09/10 06:43:42;;;;;;;9.82;6.55;;;17.60;99.90;;;;;;5056388;28;20041;-88
2023/09/10 06:46:08;;;;;;;10.10;7.47;;;17.70;99.90;;;;;;5042319;28;20048;-88
2023/09/10 06:48:33;;;;;;;9.82;7.25;;;17.80;99.90;;;;;;5066106;28;20039;-88
2023/09/10 06:51:01;;;;;;;10.50;8.25;;;17.80;99.90;;;;;;5058388;28;20824;-87
2023/09/10 06:53:33;;;;;;;11.25;9.07;;;17.90;99.90;;;;;;5040677;28;20041;-88
2023/09/10 06:55:59;;;;;;;11.02;8.70;;;18.00;99.90;;;;;;5063343;28;20041;-87
2023/09/10 06:58:25;;;;;;;10.95;8.63;;;18.10;99.90;;;;;;5055033;28;20580;-87
2023/09/10 07:00:50;;;;;;;10.77;8.57;;;18.90;99.90;;;;;;5072538;28;20482;-87
2023/09/10 07:03:16;;;;;;;11.35;9.00;;;18.40;99.90;;;;;;5067538;28;20043;-88
2023/09/10 07:05:43;;;;;;;10.70;8.52;;;17.80;99.90;;;;;;5064312;28;20072;-88
2023/09/10 07:08:11;;;;;;;11.98;9.98;;;18.60;99.90;;;;;;5043349;28;20048;-88
2023/09/10 07:10:37;;;;;;;11.30;9.18;;;18.70;99.90;;;;;;5051429;28;20647;-88
2023/09/10 07:13:07;;;;;;;12.48;9.82;;;18.80;99.90;;;;;;5061795;28;20270;-89
2023/09/10 07:15:34;;;;;;;12.50;10.18;;;18.90;99.90;;;;;;5068751;28;20055;-89
2023/09/10 07:18:00;;;;;;;12.60;9.80;;;19.00;99.90;;;;;;5067875;28;20182;-89
2023/09/10 07:20:26;;;;;;;11.90;9.90;;;19.10;99.90;;;;;;5063891;28;20504;-89
2023/09/10 07:22:51;;;;;;;13.18;10.90;;;19.30;99.90;;;;;;5066634;28;20055;-89
2023/09/10 07:25:17;;;;;;;12.00;10.13;;;19.30;99.90;;;;;;5068693;28;20039;-89
2023/09/10 07:27:43;;;;;;;11.77;9.07;;;19.50;99.90;;;;;;5069402;28;20201;-89
2023/09/10 07:30:09;;;;;;;12.27;10.15;;;19.60;99.90;;;;;;5026955;28;20036;-89
2023/09/10 07:32:34;;;;;;;12.80;10.20;;;19.70;99.90;;;;;;5067700;28;20044;-89
2023/09/10 07:35:00;;;;;;;12.75;10.60;;;19.80;99.90;;;;;;5048343;28;20084;-89
2023/09/10 07:37:26;;;;;;;11.90;10.07;;;20.00;99.90;;;;;;5058700;28;20486;-88
2023/09/10 07:39:52;;;;;;;13.77;11.25;;;20.10;99.90;;;;;;5050101;28;20035;-89
2023/09/10 07:42:17;;;;;;;11.30;9.25;;;20.20;99.90;;;;;;5074462;28;20249;-89
2023/09/10 07:44:43;;;;;;;12.60;10.38;;;20.30;99.90;;;;;;5062822;28;20047;-90
2023/09/10 07:47:09;;;;;;;11.38;9.35;;;20.40;99.90;;;;;;5054287;28;20048;-90
2023/09/10 07:49:35;;;;;;;12.38;9.82;;;20.50;99.90;;;;;;5041924;28;20044;-89
2023/09/10 07:52:03;;;;;;;11.32;9.20;;;20.60;99.90;;;;;;5057501;28;20309;-87
2023/09/10 07:54:29;;;;;;;11.57;9.45;;;20.80;99.90;;;;;;5072622;28;20101;-88
2023/09/10 07:56:55;;;;;;;11.40;9.65;;;20.90;99.90;;;;;;5062963;28;20396;-88
2023/09/10 07:59:21;;;;;;;11.82;9.75;;;21.00;99.90;;;;;;5064953;28;20040;-87
2023/09/10 08:01:47;;;;;;;11.82;9.05;;;21.10;99.90;;;;;;5075313;28;20717;-89
2023/09/10 08:04:13;;;;;;;11.75;9.57;;;21.30;99.90;;;;;;5064949;28;20174;-88
2023/09/10 08:06:39;;;;;;;12.73;9.80;;;21.40;99.90;;;;;;5055456;28;20123;-88
2023/09/10 08:09:05;;;;;;;11.35;9.15;;;21.50;99.90;;;;;;5050528;28;20119;-88
2023/09/10 08:11:31;;;;;;;11.18;8.55;;;21.60;99.90;;;;;;5064410;28;20040;-88
2023/09/10 08:13:57;;;;;;;10.95;8.32;;;21.70;99.90;;;;;;5062969;28;20105;-88
2023/09/10 08:16:23;;;;;;;10.57;8.25;;;21.90;99.90;;;;;;5070740;28;20041;-88
2023/09/10 08:18:48;;;;;;;10.27;7.90;;;22.00;99.90;;;;;;5064934;28;20055;-87
2023/09/10 08:21:14;;;;;;;10.30;7.80;;;22.10;99.90;;;;;;5041933;28;20048;-88
2023/09/10 08:23:41;;;;;;;10.18;7.32;;;22.10;99.90;;;;;;5046497;28;20673;-88
2023/09/10 08:26:07;;;;;;;10.13;7.05;;;22.20;99.90;;;;;;5054094;28;20040;-87
2023/09/10 08:28:33;;;;;;;9.98;6.57;;;22.30;99.90;;;;;;5058301;28;20052;-87
2023/09/10 08:30:58;;;;;;;10.20;7.22;;;22.40;99.90;;;;;;5060199;28;20493;-87
2023/09/10 08:33:27;;;;;;;9.00;6.38;;;22.50;99.90;;;;;;5042913;28;20069;-87
2023/09/10 08:35:54;;;;;;;11.75;7.40;;;22.60;99.90;;;;;;5058469;28;20119;-87
2023/09/10 08:38:20;;;;;;;12.75;9.35;;;22.70;99.90;;;;;;5061060;28;20044;-88
2023/09/10 08:40:59;;;;;;;12.10;8.52;;;22.80;99.90;;;;;;5062978;28;20031;-88
2023/09/10 08:43:37;;;;;;;11.43;7.15;;;22.90;99.90;;;;;;5063760;28;20055;-87
2023/09/10 08:46:08;;;;;;;12.07;8.02;;;23.00;99.90;;;;;;5073600;28;20116;-88
2023/09/10 08:48:34;;;;;;;13.30;9.25;;;23.20;99.90;;;;;;5067278;28;20036;-88
2023/09/10 08:51:01;;;;;;;11.13;7.93;;;23.30;99.90;;;;;;5064112;28;20040;-87
2023/09/10 08:53:28;;;;;;;11.30;7.68;;;23.30;99.90;;;;;;5061732;28;20147;-87
2023/09/10 08:55:55;;;;;;;12.43;8.73;;;23.40;99.90;;;;;;5065640;28;20102;-87
2023/09/10 08:58:21;;;;;;;10.55;7.25;;;23.60;99.90;;;;;;5076661;28;20086;-87
2023/09/10 09:00:47;;;;;;;10.65;6.85;;;23.60;99.90;;;;;;5064809;28;20172;-87
2023/09/10 09:03:12;;;;;;;10.60;6.38;;;23.70;99.90;;;;;;5072001;28;20115;-87
2023/09/10 09:05:40;;;;;;;11.32;6.75;;;23.80;99.90;;;;;;5062900;28;20131;-87
2023/09/10 09:08:18;;;;;;;11.07;7.18;;;23.80;99.90;;;;;;5053775;28;20035;-88
2023/09/10 09:10:44;;;;;;;10.57;6.75;;;23.90;99.90;;;;;;5070222;28;20033;-87
2023/09/10 09:13:12;;;;;;;9.57;5.90;;;24.00;99.90;;;;;;5070179;28;20040;-87
2023/09/10 09:15:39;;;;;;;9.80;6.40;;;24.10;99.90;;;;;;5059192;28;20119;-87
2023/09/10 09:18:08;;;;;;;9.00;5.72;;;24.20;99.90;;;;;;5067347;28;20041;-87
2023/09/10 09:20:36;;;;;;;9.18;5.65;;;24.30;99.90;;;;;;5063730;28;20082;-87
2023/09/10 09:23:27;;;;;;;9.93;5.93;;;24.30;99.90;;;;;;5064813;28;20048;-89
2023/09/10 09:25:55;;;;;;;10.95;5.70;;;24.30;99.90;;;;;;5062074;28;20256;-89
2023/09/10 09:28:22;;;;;;;10.07;5.50;;;24.50;99.90;;;;;;5067259;28;20051;-89
2023/09/10 09:30:48;;;;;;;8.70;5.13;;;24.50;99.90;;;;;;5062707;28;20080;-89
2023/09/10 09:33:14;;;;;;;8.52;4.95;;;24.60;99.90;;;;;;5060152;28;20459;-89
2023/09/10 09:35:40;;;;;;;9.15;5.22;;;24.50;99.90;;;;;;5063236;28;20055;-89
2023/09/10 09:38:15;;;;;;;8.18;4.53;;;24.60;99.90;;;;;;5064580;28;20044;-89
2023/09/10 09:40:43;;;;;;;9.23;5.07;;;24.70;99.90;;;;;;5061657;28;20036;-89
2023/09/10 09:43:11;;;;;;;9.35;5.22;;;24.80;99.90;;;;;;5064211;28;20298;-90
2023/09/10 09:45:39;;;;;;;8.15;4.45;;;24.90;99.90;;;;;;5062267;28;20428;-89
2023/09/10 09:48:05;;;;;;;9.52;5.63;;;24.90;99.90;;;;;;5062846;28;20036;-89
2023/09/10 09:50:32;;;;;;;9.18;5.45;;;25.00;99.90;;;;;;5061223;28;20128;-89
2023/09/10 09:52:58;;;;;;;9.18;4.78;;;25.10;99.90;;;;;;5054336;28;20052;-89
2023/09/10 09:55:24;;;;;;;10.98;6.72;;;25.10;99.90;;;;;;5060483;28;20057;-89
2023/09/10 09:57:50;;;;;;;10.90;6.55;;;25.30;99.90;;;;;;5059608;28;20035;-89
2023/09/10 10:00:17;;;;;;;10.65;7.10;;;25.30;99.90;;;;;;5062339;28;20048;-89
2023/09/10 10:02:44;;;;;;;10.20;6.15;;;25.30;99.90;;;;;;5061409;28;20102;-89
2023/09/10 10:05:09;;;;;;;10.60;6.32;;;25.40;99.90;;;;;;5062480;28;20047;-89
2023/09/10 10:07:36;;;;;;;10.15;5.53;;;25.40;99.90;;;;;;5061363;28;20046;-89
2023/09/10 10:10:06;;;;;;;10.20;6.00;;;25.50;99.90;;;;;;5053406;28;20060;-89
2023/09/10 10:12:32;;;;;;;10.60;6.43;;;25.50;99.90;;;;;;5060003;28;20121;-89
2023/09/10 10:14:59;;;;;;;10.93;6.55;;;25.50;99.90;;;;;;5063785;28;20036;-88
2023/09/10 10:17:26;;;;;;;11.07;5.78;;;25.60;99.90;;;;;;5053335;28;20393;-89
2023/09/10 10:19:52;;;;;;;17.00;6.40;;;25.70;99.90;;;;;;5058789;28;20116;-90
2023/09/10 10:22:19;;;;;;;20.30;8.02;;;25.70;99.90;;;;;;5065098;28;20067;-88
2023/09/10 10:24:46;;;;;;;14.95;7.57;;;24.60;99.90;;;;;;5061406;28;20389;-88
2023/09/10 10:27:14;;;;;;;11.02;6.97;;;25.80;99.90;;;;;;5065684;28;20040;-88
2023/09/10 10:29:40;;;;;;;11.60;6.72;;;25.90;99.90;;;;;;5067482;28;20056;-88
2023/09/10 10:32:27;;;;;;;12.77;5.90;;;25.90;99.90;;;;;;5058847;28;20044;-89
2023/09/10 10:34:59;;;;;;;11.35;6.35;;;25.90;99.90;;;;;;5074341;28;20082;-90
2023/09/10 10:37:51;;;;;;;9.90;5.95;;;25.90;99.90;;;;;;5061524;28;20042;-89
2023/09/10 10:40:19;;;;;;;11.07;6.43;;;26.20;99.90;;;;;;5051152;28;20032;-89
2023/09/10 10:43:08;;;;;;;10.43;6.30;;;26.10;99.90;;;;;;5059339;28;20402;-89
2023/09/10 10:45:34;;;;;;;10.85;6.18;;;26.20;99.90;;;;;;5070668;28;20280;-89
2023/09/10 10:48:07;;;;;;;10.27;5.90;;;26.20;99.90;;;;;;5071016;28;20064;-89
2023/09/10 10:50:35;;;;;;;9.20;5.40;;;26.20;99.90;;;;;;5040902;28;20041;-89
2023/09/10 10:53:15;;;;;;;10.57;5.90;;;26.20;99.90;;;;;;5064720;28;20668;-90
2023/09/10 10:55:41;;;;;;;10.55;5.63;;;26.20;99.90;;;;;;5061212;28;20123;-89
2023/09/10 10:58:07;;;;;;;10.20;5.18;;;26.30;99.90;;;;;;5040770;28;20044;-89
2023/09/10 11:00:33;;;;;;;9.30;5.20;;;26.40;99.90;;;;;;5058246;28;20054;-87
2023/09/10 11:03:15;;;;;;;9.70;5.70;;;26.40;99.90;;;;;;5048218;28;20048;-88
2023/09/10 11:05:53;;;;;;;9.88;5.82;;;26.20;99.90;;;;;;5067983;28;20440;-88
2023/09/10 11:08:26;;;;;;;10.55;5.97;;;26.40;99.90;;;;;;5057509;28;20041;-88
2023/09/10 11:10:52;;;;;;;10.18;5.93;;;26.50;99.90;;;;;;5053930;28;20057;-87
2023/09/10 11:13:19;;;;;;;10.02;5.40;;;26.60;99.90;;;;;;5046850;28;20124;-87
2023/09/10 11:16:03;;;;;;;10.30;5.30;;;26.60;99.90;;;;;;5060579;28;20047;-85
2023/09/10 11:18:34;;;;;;;12.02;5.90;;;26.60;99.90;;;;;;5067887;28;20029;-85
2023/09/10 11:21:05;;;;;;;9.40;5.70;;;26.60;99.90;;;;;;5061968;28;20903;-86
2023/09/10 11:23:32;;;;;;;18.70;6.88;;;26.70;99.90;;;;;;5051563;28;20584;-86
2023/09/10 11:26:13;;;;;;;9.77;5.25;;;26.70;99.90;;;;;;5067901;28;20052;-86
2023/09/10 11:28:53;;;;;;;8.98;5.00;;;26.70;99.90;;;;;;5064730;28;20127;-86
2023/09/10 11:31:37;;;;;;;9.50;5.40;;;26.70;99.90;;;;;;5036993;28;20055;-86
2023/09/10 11:34:31;;;;;;;10.13;6.00;;;26.80;99.90;;;;;;5072173;28;20047;-86
2023/09/10 11:37:02;;;;;;;10.00;6.03;;;26.80;99.90;;;;;;5063888;28;20041;-86
2023/09/10 11:39:29;;;;;;;12.70;5.88;;;26.80;99.90;;;;;;5054403;28;20036;-86
2023/09/10 11:41:57;;;;;;;10.40;5.50;;;26.80;99.90;;;;;;5062304;28;20404;-86
2023/09/10 11:44:23;;;;;;;11.65;6.18;;;26.80;99.90;;;;;;5054814;28;20485;-85
2023/09/10 11:46:52;;;;;;;11.00;5.47;;;26.80;99.90;;;;;;5065961;28;20512;-86
2023/09/10 11:49:20;;;;;;;12.80;5.78;;;26.80;99.90;;;;;;5055540;28;20115;-86
2023/09/10 11:51:52;;;;;;;12.00;6.00;;;26.90;99.90;;;;;;5044970;28;20044;-86
2023/09/10 11:54:18;;;;;;;10.27;6.03;;;27.10;99.90;;;;;;5077003;28;20123;-86
2023/09/10 11:56:58;;;;;;;10.20;5.88;;;27.10;99.90;;;;;;5054548;28;20032;-86
2023/09/10 11:59:31;;;;;;;9.73;5.40;;;27.10;99.90;;;;;;5065322;28;20055;-85
2023/09/10 12:01:58;;;;;;;11.05;5.03;;;27.20;99.90;;;;;;5062913;28;20044;-86
2023/09/10 12:04:32;;;;;;;10.32;5.97;;;27.30;99.90;;;;;;5063451;28;20040;-86
2023/09/10 12:06:58;;;;;;;13.27;5.18;;;27.30;99.90;;;;;;5072940;28;20115;-85
2023/09/10 12:09:28;;;;;;;10.77;5.25;;;27.40;99.90;;;;;;5045505;28;20049;-86
2023/09/10 12:11:54;;;;;;;10.43;5.50;;;27.40;99.90;;;;;;5064554;28;20055;-86
2023/09/10 12:14:21;;;;;;;11.52;5.25;;;27.30;99.90;;;;;;5062650;28;20129;-85
2023/09/10 12:16:47;;;;;;;10.35;4.88;;;27.40;99.90;;;;;;5072340;28;20041;-86
2023/09/10 12:19:13;;;;;;;9.50;5.18;;;27.40;99.90;;;;;;5046597;28;20044;-86
2023/09/10 12:21:41;;;;;;;10.50;5.18;;;27.40;99.90;;;;;;5055462;28;20055;-86
2023/09/10 12:24:07;;;;;;;10.73;4.82;;;27.50;99.90;;;;;;5060932;28;20047;-85
2023/09/10 12:26:33;;;;;;;9.80;4.82;;;27.50;99.90;;;;;;5063316;28;20040;-85
2023/09/10 12:28:59;;;;;;;9.82;5.03;;;27.50;99.90;;;;;;5064844;28;20064;-86
2023/09/10 12:31:25;;;;;;;9.32;5.18;;;27.50;99.90;;;;;;5047615;28;20059;-86
2023/09/10 12:33:51;;;;;;;10.23;4.50;;;27.50;99.90;;;;;;5072902;28;20066;-85
2023/09/10 12:36:16;;;;;;;8.10;4.10;;;27.60;99.90;;;;;;5061225;28;20128;-86
2023/09/10 12:38:42;;;;;;;9.27;4.60;;;25.70;99.90;;;;;;5063530;28;20058;-85
2023/09/10 12:41:08;;;;;;;11.02;4.25;;;27.50;99.90;;;;;;5049599;28;20149;-86